createdAt,value
2022-09-15T00:02:23.753Z,9.00
2022-09-15T00:04:52.466Z,10.20
2022-09-15T00:07:21.142Z,10.10
2022-09-15T00:09:52.552Z,11.00
2022-09-15T00:12:22.755Z,8.90
2022-09-15T00:14:52.819Z,10.00
2022-09-15T00:17:21.853Z,9.80
2022-09-15T00:19:51.946Z,9.90
2022-09-15T00:22:24.329Z,9.60
2022-09-15T00:24:54.788Z,9.20
2022-09-15T00:27:24.823Z,10.70
2022-09-15T00:29:54.532Z,9.80
2022-09-15T00:32:24.842Z,9.30
2022-09-15T00:34:54.562Z,10.00
2022-09-15T00:37:24.706Z,7.80
2022-09-15T00:39:55.182Z,11.80
2022-09-15T00:42:25.358Z,10.40
2022-09-15T00:45:01.645Z,9.00
2022-09-15T00:47:36.470Z,11.20
2022-09-15T00:50:15.734Z,8.60
2022-09-15T00:52:50.052Z,10.80
2022-09-15T00:55:26.068Z,10.20
2022-09-15T00:58:04.791Z,10.60
2022-09-15T01:03:25.645Z,9.40
2022-09-15T01:06:16.179Z,8.80
2022-09-15T01:09:17.147Z,9.40
2022-09-15T01:11:47.242Z,10.50
2022-09-15T01:14:17.385Z,9.40
2022-09-15T01:17:20.969Z,10.20
2022-09-15T01:19:55.765Z,9.60
2022-09-15T01:22:54.440Z,10.50
2022-09-15T01:25:36.640Z,8.90
2022-09-15T01:28:30.681Z,9.60
2022-09-15T01:31:16.945Z,10.70
2022-09-15T01:34:17.990Z,17.20
2022-09-15T01:36:59.561Z,11.00
2022-09-15T01:39:38.882Z,11.70
2022-09-15T01:42:12.494Z,11.10
2022-09-15T01:44:43.076Z,9.20
2022-09-15T01:47:16.178Z,9.30
2022-09-15T01:49:56.192Z,11.30
2022-09-15T01:52:29.330Z,9.40
2022-09-15T01:55:04.654Z,10.70
2022-09-15T01:57:34.925Z,9.20
2022-09-15T02:00:05.559Z,8.40
2022-09-15T02:02:44.346Z,11.20
2022-09-15T02:05:26.008Z,13.20
2022-09-15T02:08:02.217Z,8.10
2022-09-15T02:10:45.100Z,10.80
2022-09-15T02:13:21.575Z,14.10
2022-09-15T02:16:00.617Z,14.80
2022-09-15T02:18:47.671Z,11.60
2022-09-15T02:21:23.885Z,11.90
2022-09-15T02:24:04.696Z,12.10
2022-09-15T02:26:37.532Z,11.10
2022-09-15T02:29:10.708Z,11.10
2022-09-15T02:31:43.075Z,12.10
2022-09-15T02:34:26.175Z,10.50
2022-09-15T02:36:57.922Z,13.70
2022-09-15T02:39:33.414Z,12.90
2022-09-15T02:42:04.347Z,12.40
2022-09-15T02:44:33.792Z,13.00
2022-09-15T02:47:05.199Z,10.70
2022-09-15T02:49:35.132Z,11.20
2022-09-15T02:52:05.326Z,11.00
2022-09-15T02:54:35.109Z,10.60
2022-09-15T02:57:05.450Z,16.90
2022-09-15T02:59:54.360Z,10.90
2022-09-15T03:02:25.632Z,10.60
2022-09-15T03:04:54.945Z,13.30
2022-09-15T03:07:25.269Z,11.60
2022-09-15T03:09:55.258Z,12.30
2022-09-15T03:12:24.846Z,13.00
2022-09-15T03:14:54.457Z,11.40
2022-09-15T03:17:25.576Z,11.00
2022-09-15T03:19:55.572Z,12.50
2022-09-15T03:22:25.794Z,10.70
2022-09-15T03:24:54.292Z,12.50
2022-09-15T03:27:24.558Z,12.60
2022-09-15T03:29:54.215Z,11.00
2022-09-15T03:32:24.348Z,12.80
2022-09-15T03:34:58.343Z,11.60
2022-09-15T03:37:29.608Z,11.60
2022-09-15T03:39:59.954Z,11.70
2022-09-15T03:42:30.252Z,13.70
2022-09-15T03:44:59.864Z,11.60
2022-09-15T03:47:29.966Z,14.50
2022-09-15T03:49:59.504Z,11.00
2022-09-15T03:52:32.361Z,12.20
2022-09-15T03:55:02.654Z,9.80
2022-09-15T03:57:32.658Z,10.20
2022-09-15T04:00:03.932Z,11.20
2022-09-15T04:02:34.063Z,11.90
2022-09-15T04:05:04.297Z,12.40
2022-09-15T04:07:33.013Z,11.70
2022-09-15T04:10:02.779Z,9.90
2022-09-15T04:12:32.783Z,9.70
2022-09-15T04:15:04.644Z,11.30
2022-09-15T04:17:33.800Z,14.60
2022-09-15T04:20:03.853Z,11.60
2022-09-15T04:22:34.094Z,11.90
2022-09-15T04:25:02.493Z,11.10
2022-09-15T04:27:34.719Z,10.90
2022-09-15T04:30:04.825Z,9.70
2022-09-15T04:32:36.045Z,9.60
2022-09-15T04:35:05.816Z,9.80
2022-09-15T04:37:35.484Z,10.80
2022-09-15T04:40:04.865Z,12.10
2022-09-15T04:42:34.162Z,11.00
2022-09-15T04:45:04.167Z,11.20
2022-09-15T04:47:32.570Z,10.90
2022-09-15T04:50:02.616Z,9.60
2022-09-15T04:52:32.500Z,9.50
2022-09-15T04:55:02.482Z,11.60
2022-09-15T04:57:34.206Z,10.40
2022-09-15T05:00:06.864Z,11.20
2022-09-15T05:02:36.250Z,9.60
2022-09-15T05:05:06.333Z,9.10
2022-09-15T05:07:35.509Z,8.40
2022-09-15T05:10:05.478Z,10.90
2022-09-15T05:12:34.836Z,9.30
2022-09-15T05:15:04.563Z,7.80
2022-09-15T05:17:33.948Z,11.10
2022-09-15T05:20:05.423Z,7.90
2022-09-15T05:22:38.294Z,6.10
2022-09-15T05:25:11.528Z,7.20
2022-09-15T05:27:42.959Z,4.50
2022-09-15T05:33:05.375Z,7.00
2022-09-15T05:35:35.603Z,8.50
2022-09-15T05:38:05.176Z,6.90
2022-09-15T05:40:35.266Z,5.00
2022-09-15T05:43:06.618Z,6.60
2022-09-15T05:45:36.704Z,6.90
2022-09-15T05:48:05.642Z,6.30
2022-09-15T05:50:39.068Z,8.20
2022-09-15T05:53:08.274Z,4.60
2022-09-15T05:55:40.090Z,6.10
2022-09-15T05:58:08.604Z,9.20
2022-09-15T06:00:38.907Z,10.00
2022-09-15T06:03:15.309Z,9.20
2022-09-15T06:05:45.103Z,7.30
2022-09-15T06:08:13.949Z,8.30
2022-09-15T06:10:43.871Z,4.90
2022-09-15T06:13:15.130Z,6.10
2022-09-15T06:15:45.543Z,4.90
2022-09-15T06:18:16.554Z,5.60
2022-09-15T06:20:46.264Z,4.80
2022-09-15T06:23:16.319Z,4.80
2022-09-15T06:25:46.273Z,4.50
2022-09-15T06:28:15.964Z,5.70
2022-09-15T06:30:50.241Z,5.70
2022-09-15T06:33:19.953Z,4.50
2022-09-15T06:35:48.417Z,4.20
2022-09-15T06:38:19.104Z,6.60
2022-09-15T06:41:07.536Z,4.30
2022-09-15T06:43:38.248Z,7.10
2022-09-15T06:46:12.581Z,5.00
2022-09-15T06:48:46.332Z,3.70
2022-09-15T06:51:21.133Z,5.30
2022-09-15T06:53:53.836Z,4.80
2022-09-15T06:56:24.463Z,3.80
2022-09-15T06:58:58.829Z,2.60
2022-09-15T07:01:37.960Z,3.40
2022-09-15T07:04:11.192Z,3.70
2022-09-15T07:06:40.420Z,4.40
2022-09-15T07:09:11.750Z,3.90
2022-09-15T07:11:41.671Z,5.00
2022-09-15T07:14:12.167Z,3.10
2022-09-15T07:16:42.180Z,3.20
2022-09-15T07:19:13.182Z,2.00
2022-09-15T07:21:42.770Z,3.30
2022-09-15T07:24:13.477Z,3.50
2022-09-15T07:26:43.151Z,3.00
2022-09-15T07:29:13.537Z,2.00
2022-09-15T07:31:43.708Z,6.80
2022-09-15T07:34:13.717Z,2.50
2022-09-15T07:36:42.327Z,2.20
2022-09-15T07:39:14.367Z,3.00
2022-09-15T07:41:44.456Z,2.60
2022-09-15T07:44:14.598Z,3.80
2022-09-15T07:46:44.987Z,3.30
2022-09-15T07:49:14.907Z,2.60
2022-09-15T07:51:45.154Z,2.50
2022-09-15T07:54:18.288Z,2.00
2022-09-15T07:56:52.057Z,2.60
2022-09-15T07:59:21.970Z,4.70
2022-09-15T08:01:51.802Z,3.20
2022-09-15T08:04:21.787Z,2.40
2022-09-15T08:06:50.584Z,2.60
2022-09-15T08:09:21.819Z,2.30
2022-09-15T08:11:50.790Z,2.80
2022-09-15T08:14:21.834Z,2.80
2022-09-15T08:16:51.748Z,3.10
2022-09-15T08:19:21.861Z,2.60
2022-09-15T08:21:51.748Z,2.70
2022-09-15T08:24:22.951Z,3.80
2022-09-15T08:26:52.997Z,2.40
2022-09-15T08:29:23.282Z,4.00
2022-09-15T08:31:54.808Z,4.30
2022-09-15T08:34:25.087Z,2.90
2022-09-15T08:36:55.178Z,3.70
2022-09-15T08:39:25.045Z,4.00
2022-09-15T08:41:56.362Z,3.40
2022-09-15T08:44:35.804Z,2.50
2022-09-15T08:47:09.122Z,4.30
2022-09-15T08:50:23.529Z,4.70
2022-09-15T08:53:02.257Z,6.10
2022-09-15T08:55:52.799Z,2.00
2022-09-15T08:58:26.317Z,3.50
2022-09-15T09:01:05.289Z,1.40
2022-09-15T09:03:44.306Z,3.70
2022-09-15T09:06:29.852Z,1.80
2022-09-15T09:09:15.650Z,2.90
2022-09-15T09:11:59.672Z,1.60
2022-09-15T09:15:07.220Z,2.70
2022-09-15T09:20:33.746Z,2.30
2022-09-15T09:23:12.473Z,3.10
2022-09-15T09:25:43.945Z,2.40
2022-09-15T09:28:29.788Z,1.20
2022-09-15T09:31:08.820Z,0.90
2022-09-15T09:34:11.881Z,2.20
2022-09-15T09:36:42.917Z,1.60
2022-09-15T09:39:15.605Z,2.10
2022-09-15T09:41:45.918Z,1.60
2022-09-15T09:44:16.196Z,1.30
2022-09-15T09:46:47.606Z,2.40
2022-09-15T09:49:25.014Z,2.20
2022-09-15T09:52:02.963Z,3.20
2022-09-15T09:54:36.056Z,2.00
2022-09-15T09:57:15.731Z,5.80
2022-09-15T09:59:53.618Z,3.40
2022-09-15T10:02:29.521Z,2.30
2022-09-15T10:05:09.968Z,3.60
2022-09-15T10:07:44.179Z,2.80
2022-09-15T10:10:25.090Z,2.50
2022-09-15T10:12:59.805Z,2.80
2022-09-15T10:15:35.755Z,2.10
2022-09-15T10:18:06.049Z,2.30
2022-09-15T10:20:48.545Z,3.80
2022-09-15T10:23:18.650Z,4.40
2022-09-15T10:25:59.217Z,2.90
2022-09-15T10:28:31.103Z,4.80
2022-09-15T10:31:33.007Z,3.10
2022-09-15T10:34:25.984Z,2.50
2022-09-15T10:37:28.900Z,5.70
2022-09-15T10:40:03.463Z,2.10
2022-09-15T10:43:17.010Z,3.50
2022-09-15T10:46:00.409Z,3.80
2022-09-15T10:48:38.934Z,3.40
2022-09-15T10:51:22.640Z,2.50
2022-09-15T10:54:01.370Z,3.90
2022-09-15T10:56:42.536Z,2.20
2022-09-15T10:59:39.941Z,2.30
2022-09-15T11:02:27.649Z,3.20
2022-09-15T11:08:00.404Z,3.10
2022-09-15T11:11:04.853Z,5.50
2022-09-15T11:13:54.264Z,3.10
2022-09-15T11:16:54.086Z,3.20
2022-09-15T11:19:26.139Z,3.20
2022-09-15T11:22:10.201Z,1.40
2022-09-15T11:24:51.941Z,2.00
2022-09-15T11:27:29.376Z,3.70
2022-09-15T11:30:15.123Z,3.90
2022-09-15T11:33:14.118Z,5.60
2022-09-15T11:35:51.337Z,2.40
2022-09-15T11:38:43.579Z,3.30
2022-09-15T11:41:37.072Z,4.40
2022-09-15T11:44:28.715Z,1.60
2022-09-15T11:47:16.760Z,2.30
2022-09-15T11:50:04.560Z,3.10
2022-09-15T11:53:03.723Z,3.90
2022-09-15T11:55:55.547Z,2.60
2022-09-15T11:58:59.301Z,2.60
2022-09-15T12:01:56.485Z,1.60
2022-09-15T12:07:04.985Z,3.20
2022-09-15T12:09:35.435Z,3.00
2022-09-15T12:12:13.302Z,3.00
2022-09-15T12:14:45.371Z,2.70
2022-09-15T12:17:25.185Z,2.90
2022-09-15T12:20:07.268Z,3.30
2022-09-15T12:22:46.730Z,4.20
2022-09-15T12:25:36.474Z,2.80
2022-09-15T12:28:25.205Z,2.00
2022-09-15T12:31:40.025Z,2.80
2022-09-15T12:34:38.791Z,1.80
2022-09-15T12:37:15.154Z,2.60
2022-09-15T12:39:47.324Z,1.20
2022-09-15T12:42:32.075Z,2.00
2022-09-15T12:45:04.666Z,1.70
2022-09-15T12:47:49.428Z,1.90
2022-09-15T12:50:27.571Z,2.20
2022-09-15T12:53:05.236Z,3.60
2022-09-15T12:55:37.710Z,2.00
2022-09-15T12:58:16.810Z,3.30
2022-09-15T13:01:16.540Z,2.10
2022-09-15T13:03:42.235Z,1.60
2022-09-15T13:06:19.704Z,2.40
2022-09-15T13:09:02.662Z,1.10
2022-09-15T13:11:38.318Z,2.80
2022-09-15T13:14:33.287Z,2.60
2022-09-15T13:17:13.807Z,2.40
2022-09-15T13:19:58.686Z,3.60
2022-09-15T13:22:45.083Z,2.40
2022-09-15T13:25:17.275Z,2.30
2022-09-15T13:27:51.277Z,10.20
2022-09-15T13:31:01.019Z,2.90
2022-09-15T13:40:59.524Z,3.00
2022-09-15T13:43:56.685Z,2.90
2022-09-15T13:46:47.226Z,2.50
2022-09-15T13:49:33.534Z,2.50
2022-09-15T13:52:33.060Z,5.00
2022-09-15T13:55:21.811Z,4.60
2022-09-15T14:00:46.339Z,5.30
2022-09-15T14:03:45.254Z,6.70
2022-09-15T14:06:25.153Z,5.00
2022-09-15T14:08:59.202Z,5.20
2022-09-15T14:11:35.190Z,5.80
2022-09-15T14:14:11.061Z,6.70
2022-09-15T14:16:50.093Z,3.70
2022-09-15T14:19:34.699Z,4.30
2022-09-15T14:22:34.862Z,5.20
2022-09-15T14:25:17.002Z,3.60
2022-09-15T14:27:52.588Z,4.60
2022-09-15T14:30:35.161Z,7.80
2022-09-15T14:33:05.036Z,5.40
2022-09-15T14:35:40.211Z,6.80
2022-09-15T14:38:22.007Z,5.00
2022-09-15T14:40:57.260Z,6.00
2022-09-15T14:43:32.569Z,8.30
2022-09-15T14:46:12.749Z,8.00
2022-09-15T14:48:42.643Z,9.60
2022-09-15T14:51:25.779Z,9.40
2022-09-15T14:54:00.666Z,5.50
2022-09-15T14:56:42.317Z,7.40
2022-09-15T14:59:28.511Z,6.60
2022-09-15T15:02:08.623Z,5.50
2022-09-15T15:04:49.930Z,6.20
2022-09-15T15:07:29.550Z,5.60
2022-09-15T15:10:02.302Z,7.20
2022-09-15T15:12:45.508Z,5.10
2022-09-15T15:15:22.855Z,6.50
2022-09-15T15:17:57.462Z,5.00
2022-09-15T15:20:31.225Z,6.00
2022-09-15T15:23:16.011Z,7.60
2022-09-15T15:25:49.255Z,9.30
2022-09-15T15:28:34.339Z,6.30
2022-09-15T15:31:28.904Z,5.90
2022-09-15T15:34:05.817Z,7.30
2022-09-15T15:36:36.807Z,8.60
2022-09-15T15:39:08.148Z,6.00
2022-09-15T15:41:42.767Z,7.50
2022-09-15T15:44:16.170Z,7.70
2022-09-15T15:46:55.951Z,8.40
2022-09-15T15:49:28.085Z,8.90
2022-09-15T15:52:02.163Z,7.90
2022-09-15T15:54:34.625Z,4.20
2022-09-15T15:57:27.082Z,8.30
2022-09-15T15:59:58.711Z,6.60
2022-09-15T16:02:28.685Z,9.40
2022-09-15T16:04:57.931Z,8.80
2022-09-15T16:07:32.524Z,3.90
2022-09-15T16:10:04.003Z,13.40
2022-09-15T16:12:35.432Z,7.20
2022-09-15T16:15:18.182Z,8.60
2022-09-15T16:17:47.758Z,8.50
2022-09-15T16:20:21.805Z,11.50
2022-09-15T16:22:52.462Z,6.50
2022-09-15T16:25:37.403Z,8.40
2022-09-15T16:28:06.650Z,8.10
2022-09-15T16:30:36.660Z,8.60
2022-09-15T16:33:06.676Z,10.30
2022-09-15T16:35:40.167Z,9.30
2022-09-15T16:38:10.137Z,6.30
2022-09-15T16:40:42.687Z,7.10
2022-09-15T16:43:20.051Z,6.60
2022-09-15T16:45:53.377Z,8.80
2022-09-15T16:48:28.067Z,5.20
2022-09-15T16:53:55.020Z,6.90
2022-09-15T16:56:25.108Z,8.00
2022-09-15T16:59:00.133Z,9.30
2022-09-15T17:01:30.934Z,6.70
2022-09-15T17:04:02.404Z,6.90
2022-09-15T17:06:31.753Z,9.70
2022-09-15T17:09:01.137Z,7.80
2022-09-15T17:11:33.343Z,8.00
2022-09-15T17:14:03.542Z,8.80
2022-09-15T17:16:33.285Z,8.50
2022-09-15T17:19:02.900Z,10.30
2022-09-15T17:21:32.196Z,6.70
2022-09-15T17:24:01.917Z,8.50
2022-09-15T17:26:31.836Z,10.30
2022-09-15T17:29:01.711Z,6.80
2022-09-15T17:31:32.711Z,7.20
2022-09-15T17:34:02.977Z,7.60
2022-09-15T17:36:33.946Z,10.30
2022-09-15T17:39:06.394Z,9.00
2022-09-15T17:41:36.249Z,6.00
2022-09-15T17:44:11.141Z,10.90
2022-09-15T17:46:41.015Z,9.70
2022-09-15T17:49:14.389Z,7.70
2022-09-15T17:51:44.630Z,6.50
2022-09-15T17:54:14.831Z,9.60
2022-09-15T17:56:44.444Z,7.40
2022-09-15T17:59:16.231Z,8.20
2022-09-15T18:01:46.610Z,11.20
2022-09-15T18:04:16.581Z,6.00
2022-09-15T18:06:46.300Z,9.50
2022-09-15T18:09:15.189Z,6.60
2022-09-15T18:11:44.868Z,7.20
2022-09-15T18:14:15.012Z,7.10
2022-09-15T18:16:43.585Z,6.50
2022-09-15T18:19:13.608Z,8.30
2022-09-15T18:21:45.166Z,11.20
2022-09-15T18:24:15.750Z,5.00
2022-09-15T18:26:45.501Z,5.80
2022-09-15T18:29:15.474Z,5.30
2022-09-15T18:31:45.338Z,5.40
2022-09-15T18:34:14.968Z,4.80
2022-09-15T18:36:44.896Z,4.40
2022-09-15T18:39:14.849Z,6.60
2022-09-15T18:41:44.617Z,5.20
2022-09-15T18:44:14.725Z,4.70
2022-09-15T18:46:45.913Z,3.70
2022-09-15T18:49:16.236Z,7.60
2022-09-15T18:51:53.164Z,3.40
2022-09-15T18:54:25.343Z,4.10
2022-09-15T18:56:55.080Z,4.30
2022-09-15T18:59:24.853Z,4.40
2022-09-15T19:01:54.760Z,5.30
2022-09-15T19:04:31.621Z,4.00
2022-09-15T19:07:02.802Z,5.70
2022-09-15T19:09:32.807Z,4.60
2022-09-15T19:12:02.682Z,6.00
2022-09-15T19:14:32.411Z,6.30
2022-09-15T19:17:02.116Z,6.00
2022-09-15T19:19:34.033Z,6.40
2022-09-15T19:22:04.563Z,7.50
2022-09-15T19:24:37.493Z,7.30
2022-09-15T19:27:08.478Z,6.10
2022-09-15T19:29:39.265Z,8.40
2022-09-15T19:32:12.908Z,6.70
2022-09-15T19:34:43.299Z,6.80
2022-09-15T19:37:18.506Z,5.50
2022-09-15T19:39:50.337Z,6.80
2022-09-15T19:42:19.062Z,6.60
2022-09-15T19:44:49.745Z,5.20
2022-09-15T19:47:19.715Z,10.00
2022-09-15T19:49:51.976Z,6.70
2022-09-15T19:52:21.985Z,6.20
2022-09-15T19:54:51.980Z,10.70
2022-09-15T19:57:22.443Z,8.50
2022-09-15T19:59:51.836Z,8.70
2022-09-15T20:02:21.724Z,6.10
2022-09-15T20:05:04.472Z,10.00
2022-09-15T20:07:34.648Z,5.70
2022-09-15T20:10:05.226Z,7.20
2022-09-15T20:12:34.030Z,7.20
2022-09-15T20:15:02.568Z,8.80
2022-09-15T20:17:32.776Z,7.20
2022-09-15T20:20:03.158Z,6.00
2022-09-15T20:22:33.148Z,8.60
2022-09-15T20:25:02.667Z,7.00
2022-09-15T20:27:32.759Z,8.40
2022-09-15T20:30:02.375Z,5.60
2022-09-15T20:35:21.109Z,8.90
2022-09-15T20:37:50.797Z,7.50
2022-09-15T20:40:20.451Z,7.20
2022-09-15T20:42:50.513Z,5.90
2022-09-15T20:45:20.911Z,6.70
2022-09-15T20:47:50.407Z,8.30
2022-09-15T20:50:20.586Z,6.60
2022-09-15T20:52:50.075Z,7.00
2022-09-15T20:55:19.949Z,9.30
2022-09-15T20:57:49.566Z,7.30
2022-09-15T21:00:20.409Z,6.00
2022-09-15T21:02:53.019Z,10.10
2022-09-15T21:05:23.123Z,6.00
2022-09-15T21:07:52.337Z,7.40
2022-09-15T21:10:24.519Z,7.10
2022-09-15T21:12:55.210Z,8.20
2022-09-15T21:15:24.838Z,8.00
2022-09-15T21:17:54.363Z,4.80
2022-09-15T21:20:24.011Z,5.80
2022-09-15T21:22:58.007Z,7.00
2022-09-15T21:25:27.620Z,6.40
2022-09-15T21:27:59.888Z,4.80
2022-09-15T21:30:28.455Z,4.90
2022-09-15T21:32:58.414Z,6.10
2022-09-15T21:35:28.754Z,7.20
2022-09-15T21:38:00.764Z,7.00
2022-09-15T21:40:29.302Z,5.80
2022-09-15T21:42:59.010Z,5.90
2022-09-15T21:45:28.532Z,4.90
2022-09-15T21:47:58.009Z,6.40
2022-09-15T21:50:30.047Z,5.40
2022-09-15T21:52:59.800Z,6.50
2022-09-15T21:55:30.541Z,5.30
2022-09-15T21:58:00.214Z,6.40
2022-09-15T22:00:30.442Z,5.50
2022-09-15T22:03:00.358Z,5.50
2022-09-15T22:05:30.096Z,4.70
2022-09-15T22:08:04.669Z,4.70
2022-09-15T22:10:35.633Z,7.20
2022-09-15T22:13:07.419Z,5.50
2022-09-15T22:15:37.942Z,6.30
2022-09-15T22:18:07.890Z,6.60
2022-09-15T22:20:37.085Z,6.80
2022-09-15T22:23:06.876Z,6.70
2022-09-15T22:25:36.597Z,6.10
2022-09-15T22:28:07.140Z,8.40
2022-09-15T22:30:36.877Z,5.50
2022-09-15T22:33:06.569Z,4.50
2022-09-15T22:35:35.757Z,5.60
2022-09-15T22:38:05.253Z,6.70
2022-09-15T22:40:34.915Z,6.60
2022-09-15T22:43:03.443Z,4.80
2022-09-15T22:45:33.316Z,4.10
2022-09-15T22:48:03.075Z,4.60
2022-09-15T22:50:33.062Z,7.20
2022-09-15T22:53:03.011Z,5.70
2022-09-15T22:55:32.640Z,4.80
2022-09-15T22:58:02.291Z,2.80
2022-09-15T23:00:33.357Z,2.60
2022-09-15T23:03:03.107Z,4.00
2022-09-15T23:05:34.467Z,5.10
2022-09-15T23:08:04.750Z,3.60
2022-09-15T23:10:34.464Z,3.40
2022-09-15T23:13:04.192Z,4.60
2022-09-15T23:15:35.443Z,2.70
2022-09-15T23:18:04.659Z,3.40
2022-09-15T23:20:34.442Z,3.30
2022-09-15T23:23:02.925Z,2.20
2022-09-15T23:25:32.251Z,2.10
2022-09-15T23:28:01.779Z,2.90
2022-09-15T23:30:31.765Z,3.10
2022-09-15T23:33:02.013Z,3.40
2022-09-15T23:35:30.462Z,4.20
2022-09-15T23:38:00.606Z,4.00
2022-09-15T23:40:30.833Z,3.70
2022-09-15T23:43:00.534Z,4.00
2022-09-15T23:45:32.661Z,2.30
2022-09-15T23:48:04.645Z,3.50
2022-09-15T23:50:34.777Z,2.90
2022-09-15T23:53:05.637Z,4.70
2022-09-15T23:55:35.363Z,2.30
2022-09-15T23:58:05.381Z,3.40
